Abel, Alabama
Current Conditions -  °F | °C
As of 5:53 PM on Wednesday 17 Dec 2014 (Local Time) from KANB Reporting Station
Clear Clear  
Wind Chill: 36°   Ceiling: Unl
Heat Index: 36°   Visibility: 9mi
Dew Point: 33°   Wind: 0mph
Humidity: 89%   Direction: NA
Pressure: 30.22"   Gusts: NA
Location:  33.4483°N, 85.6826°W
Report Text: KANB 172353Z AUTO 00000KT 9SM CLR 02/01 A3022 RMK AO2 SLP244 T00220006 10089 20022 53008
Loading
Personal Weather Stations






























Interactive Weather Map New forecast layout! Learn more

10-Day Weather Forecast

Advertisements
Track Severe Weather on mobile